sensor_id;sensor_type;location;lat;lon;timestamp;P1;durP1;ratioP1;P2;durP2;ratioP2
54845;SDS011;53889;50.084;8.646;2022-07-29T00:00:38;5.03;;;1.40;;
54845;SDS011;53889;50.084;8.646;2022-07-29T00:03:05;3.75;;;1.38;;
54845;SDS011;53889;50.084;8.646;2022-07-29T00:05:32;6.22;;;1.40;;
54845;SDS011;53889;50.084;8.646;2022-07-29T00:08:00;5.90;;;1.25;;
54845;SDS011;53889;50.084;8.646;2022-07-29T00:10:27;4.93;;;1.45;;
54845;SDS011;53889;50.084;8.646;2022-07-29T00:12:54;4.05;;;1.35;;
54845;SDS011;53889;50.084;8.646;2022-07-29T00:15:21;5.60;;;1.40;;
54845;SDS011;53889;50.084;8.646;2022-07-29T00:17:48;3.40;;;1.40;;
54845;SDS011;53889;50.084;8.646;2022-07-29T00:20:15;2.92;;;1.40;;
54845;SDS011;53889;50.084;8.646;2022-07-29T00:22:42;4.18;;;1.30;;
54845;SDS011;53889;50.084;8.646;2022-07-29T00:25:10;5.22;;;1.40;;
54845;SDS011;53889;50.084;8.646;2022-07-29T00:27:39;5.22;;;1.58;;
54845;SDS011;53889;50.084;8.646;2022-07-29T00:30:06;4.75;;;1.40;;
54845;SDS011;53889;50.084;8.646;2022-07-29T00:32:34;5.95;;;1.40;;
54845;SDS011;53889;50.084;8.646;2022-07-29T00:35:01;3.45;;;1.30;;
54845;SDS011;53889;50.084;8.646;2022-07-29T00:37:46;3.50;;;1.30;;
54845;SDS011;53889;50.084;8.646;2022-07-29T00:40:14;5.78;;;1.30;;
54845;SDS011;53889;50.084;8.646;2022-07-29T00:42:41;4.75;;;1.17;;
54845;SDS011;53889;50.084;8.646;2022-07-29T00:45:09;3.95;;;1.45;;
54845;SDS011;53889;50.084;8.646;2022-07-29T00:47:36;5.38;;;1.35;;
54845;SDS011;53889;50.084;8.646;2022-07-29T00:50:04;3.35;;;1.20;;
54845;SDS011;53889;50.084;8.646;2022-07-29T00:52:32;4.07;;;1.40;;
54845;SDS011;53889;50.084;8.646;2022-07-29T00:54:59;3.38;;;1.30;;
54845;SDS011;53889;50.084;8.646;2022-07-29T00:57:27;4.38;;;1.45;;
54845;SDS011;53889;50.084;8.646;2022-07-29T00:59:54;4.93;;;1.33;;
54845;SDS011;53889;50.084;8.646;2022-07-29T01:02:21;4.43;;;1.20;;
54845;SDS011;53889;50.084;8.646;2022-07-29T01:04:48;6.03;;;1.50;;
54845;SDS011;53889;50.084;8.646;2022-07-29T01:07:16;4.95;;;1.35;;
54845;SDS011;53889;50.084;8.646;2022-07-29T01:09:43;3.72;;;1.33;;
54845;SDS011;53889;50.084;8.646;2022-07-29T01:12:11;5.93;;;1.83;;
54845;SDS011;53889;50.084;8.646;2022-07-29T01:14:42;7.00;;;1.55;;
54845;SDS011;53889;50.084;8.646;2022-07-29T01:17:10;3.53;;;1.40;;
54845;SDS011;53889;50.084;8.646;2022-07-29T01:19:45;4.28;;;1.60;;
54845;SDS011;53889;50.084;8.646;2022-07-29T01:22:25;5.40;;;1.50;;
54845;SDS011;53889;50.084;8.646;2022-07-29T01:27:50;3.10;;;1.30;;
54845;SDS011;53889;50.084;8.646;2022-07-29T01:30:30;4.72;;;1.50;;
54845;SDS011;53889;50.084;8.646;2022-07-29T01:33:02;5.20;;;1.40;;
54845;SDS011;53889;50.084;8.646;2022-07-29T01:35:33;4.93;;;1.70;;
54845;SDS011;53889;50.084;8.646;2022-07-29T01:38:05;4.88;;;2.03;;
54845;SDS011;53889;50.084;8.646;2022-07-29T01:40:39;4.53;;;1.45;;
54845;SDS011;53889;50.084;8.646;2022-07-29T01:43:10;6.00;;;1.73;;
54845;SDS011;53889;50.084;8.646;2022-07-29T01:45:41;5.22;;;1.70;;
54845;SDS011;53889;50.084;8.646;2022-07-29T01:48:11;4.85;;;1.67;;
54845;SDS011;53889;50.084;8.646;2022-07-29T01:50:45;4.57;;;1.70;;
54845;SDS011;53889;50.084;8.646;2022-07-29T01:53:15;3.80;;;1.50;;
54845;SDS011;53889;50.084;8.646;2022-07-29T01:55:47;5.20;;;1.70;;
54845;SDS011;53889;50.084;8.646;2022-07-29T01:58:15;4.85;;;1.58;;
54845;SDS011;53889;50.084;8.646;2022-07-29T02:00:46;5.28;;;1.80;;
54845;SDS011;53889;50.084;8.646;2022-07-29T02:03:14;4.65;;;1.70;;
54845;SDS011;53889;50.084;8.646;2022-07-29T02:05:42;4.75;;;1.70;;
54845;SDS011;53889;50.084;8.646;2022-07-29T02:08:12;6.55;;;1.70;;
54845;SDS011;53889;50.084;8.646;2022-07-29T02:10:40;3.95;;;1.70;;
54845;SDS011;53889;50.084;8.646;2022-07-29T02:13:09;4.57;;;1.63;;
54845;SDS011;53889;50.084;8.646;2022-07-29T02:15:37;5.38;;;1.63;;
54845;SDS011;53889;50.084;8.646;2022-07-29T02:18:09;5.68;;;1.90;;
54845;SDS011;53889;50.084;8.646;2022-07-29T02:20:38;6.70;;;1.58;;
54845;SDS011;53889;50.084;8.646;2022-07-29T02:23:06;4.85;;;1.70;;
54845;SDS011;53889;50.084;8.646;2022-07-29T02:25:36;4.65;;;2.00;;
54845;SDS011;53889;50.084;8.646;2022-07-29T02:28:04;4.75;;;1.90;;
54845;SDS011;53889;50.084;8.646;2022-07-29T02:30:32;4.85;;;1.80;;
54845;SDS011;53889;50.084;8.646;2022-07-29T02:32:59;4.30;;;1.67;;
54845;SDS011;53889;50.084;8.646;2022-07-29T02:35:29;6.70;;;1.95;;
54845;SDS011;53889;50.084;8.646;2022-07-29T02:37:56;3.95;;;1.70;;
54845;SDS011;53889;50.084;8.646;2022-07-29T02:40:40;4.43;;;1.85;;
54845;SDS011;53889;50.084;8.646;2022-07-29T02:43:08;5.82;;;1.80;;
54845;SDS011;53889;50.084;8.646;2022-07-29T02:45:37;5.80;;;2.00;;
54845;SDS011;53889;50.084;8.646;2022-07-29T02:48:05;5.82;;;1.70;;
54845;SDS011;53889;50.084;8.646;2022-07-29T02:50:38;5.95;;;1.95;;
54845;SDS011;53889;50.084;8.646;2022-07-29T02:53:09;4.68;;;1.70;;
54845;SDS011;53889;50.084;8.646;2022-07-29T02:55:43;6.72;;;2.15;;
54845;SDS011;53889;50.084;8.646;2022-07-29T02:58:13;6.30;;;1.95;;
54845;SDS011;53889;50.084;8.646;2022-07-29T03:00:48;5.10;;;1.70;;
54845;SDS011;53889;50.084;8.646;2022-07-29T03:03:17;3.45;;;1.65;;
54845;SDS011;53889;50.084;8.646;2022-07-29T03:05:48;4.63;;;2.10;;
54845;SDS011;53889;50.084;8.646;2022-07-29T03:08:15;3.75;;;1.95;;
54845;SDS011;53889;50.084;8.646;2022-07-29T03:10:43;4.55;;;1.70;;
54845;SDS011;53889;50.084;8.646;2022-07-29T03:13:12;5.28;;;2.22;;
54845;SDS011;53889;50.084;8.646;2022-07-29T03:15:39;3.78;;;1.80;;
54845;SDS011;53889;50.084;8.646;2022-07-29T03:18:08;4.18;;;2.00;;
54845;SDS011;53889;50.084;8.646;2022-07-29T03:20:36;5.78;;;1.90;;
54845;SDS011;53889;50.084;8.646;2022-07-29T03:23:05;5.88;;;2.20;;
54845;SDS011;53889;50.084;8.646;2022-07-29T03:25:32;4.85;;;2.10;;
54845;SDS011;53889;50.084;8.646;2022-07-29T03:28:00;3.70;;;1.83;;
54845;SDS011;53889;50.084;8.646;2022-07-29T03:30:27;6.50;;;2.42;;
54845;SDS011;53889;50.084;8.646;2022-07-29T03:32:55;3.72;;;1.70;;
54845;SDS011;53889;50.084;8.646;2022-07-29T03:35:22;4.20;;;1.90;;
54845;SDS011;53889;50.084;8.646;2022-07-29T03:37:49;5.20;;;2.22;;
54845;SDS011;53889;50.084;8.646;2022-07-29T03:40:19;5.00;;;2.00;;
54845;SDS011;53889;50.084;8.646;2022-07-29T03:42:49;5.72;;;1.95;;
54845;SDS011;53889;50.084;8.646;2022-07-29T03:45:20;5.32;;;2.00;;
54845;SDS011;53889;50.084;8.646;2022-07-29T03:47:50;4.80;;;2.25;;
54845;SDS011;53889;50.084;8.646;2022-07-29T03:50:19;5.07;;;2.30;;
54845;SDS011;53889;50.084;8.646;2022-07-29T03:52:47;5.70;;;2.42;;
54845;SDS011;53889;50.084;8.646;2022-07-29T03:55:14;4.65;;;2.20;;
54845;SDS011;53889;50.084;8.646;2022-07-29T03:57:44;4.85;;;2.05;;
54845;SDS011;53889;50.084;8.646;2022-07-29T04:00:11;4.85;;;2.47;;
54845;SDS011;53889;50.084;8.646;2022-07-29T04:02:40;5.20;;;2.05;;
54845;SDS011;53889;50.084;8.646;2022-07-29T04:05:11;5.00;;;2.00;;
54845;SDS011;53889;50.084;8.646;2022-07-29T04:07:39;5.13;;;2.00;;
54845;SDS011;53889;50.084;8.646;2022-07-29T04:10:06;3.92;;;2.00;;
54845;SDS011;53889;50.084;8.646;2022-07-29T04:12:33;5.85;;;2.05;;
54845;SDS011;53889;50.084;8.646;2022-07-29T04:17:43;4.68;;;2.20;;
54845;SDS011;53889;50.084;8.646;2022-07-29T04:20:10;4.18;;;1.90;;
54845;SDS011;53889;50.084;8.646;2022-07-29T04:22:38;5.75;;;2.10;;
54845;SDS011;53889;50.084;8.646;2022-07-29T04:25:05;5.13;;;2.00;;
54845;SDS011;53889;50.084;8.646;2022-07-29T04:27:33;4.55;;;1.90;;
54845;SDS011;53889;50.084;8.646;2022-07-29T04:29:59;4.95;;;2.10;;
54845;SDS011;53889;50.084;8.646;2022-07-29T04:32:28;6.22;;;1.90;;
54845;SDS011;53889;50.084;8.646;2022-07-29T04:34:55;6.43;;;2.10;;
54845;SDS011;53889;50.084;8.646;2022-07-29T04:37:22;5.35;;;1.85;;
54845;SDS011;53889;50.084;8.646;2022-07-29T04:39:49;8.77;;;4.40;;
54845;SDS011;53889;50.084;8.646;2022-07-29T04:42:16;11.30;;;4.50;;
54845;SDS011;53889;50.084;8.646;2022-07-29T04:44:44;13.95;;;7.07;;
54845;SDS011;53889;50.084;8.646;2022-07-29T04:47:11;8.75;;;4.35;;
54845;SDS011;53889;50.084;8.646;2022-07-29T04:49:39;13.65;;;7.13;;
54845;SDS011;53889;50.084;8.646;2022-07-29T04:52:05;11.20;;;6.13;;
54845;SDS011;53889;50.084;8.646;2022-07-29T04:54:33;11.80;;;5.28;;
54845;SDS011;53889;50.084;8.646;2022-07-29T04:57:00;10.68;;;5.75;;
54845;SDS011;53889;50.084;8.646;2022-07-29T04:59:27;13.25;;;6.70;;
54845;SDS011;53889;50.084;8.646;2022-07-29T05:01:54;14.43;;;5.30;;
54845;SDS011;53889;50.084;8.646;2022-07-29T05:04:20;12.63;;;6.75;;
54845;SDS011;53889;50.084;8.646;2022-07-29T05:06:49;14.48;;;6.25;;
54845;SDS011;53889;50.084;8.646;2022-07-29T05:09:16;13.63;;;5.57;;
54845;SDS011;53889;50.084;8.646;2022-07-29T05:11:42;11.57;;;4.97;;
54845;SDS011;53889;50.084;8.646;2022-07-29T05:14:09;10.95;;;6.25;;
54845;SDS011;53889;50.084;8.646;2022-07-29T05:16:36;9.98;;;5.53;;
54845;SDS011;53889;50.084;8.646;2022-07-29T05:19:04;13.35;;;6.60;;
54845;SDS011;53889;50.084;8.646;2022-07-29T05:21:31;13.18;;;6.50;;
54845;SDS011;53889;50.084;8.646;2022-07-29T05:24:00;12.30;;;5.78;;
54845;SDS011;53889;50.084;8.646;2022-07-29T05:26:27;14.90;;;7.90;;
54845;SDS011;53889;50.084;8.646;2022-07-29T05:28:54;14.65;;;7.78;;
54845;SDS011;53889;50.084;8.646;2022-07-29T05:31:22;11.30;;;4.43;;
54845;SDS011;53889;50.084;8.646;2022-07-29T05:33:48;8.32;;;3.58;;
54845;SDS011;53889;50.084;8.646;2022-07-29T05:36:15;8.10;;;3.17;;
54845;SDS011;53889;50.084;8.646;2022-07-29T05:38:42;5.95;;;2.50;;
54845;SDS011;53889;50.084;8.646;2022-07-29T05:41:10;5.80;;;1.70;;
54845;SDS011;53889;50.084;8.646;2022-07-29T05:43:36;3.95;;;1.88;;
54845;SDS011;53889;50.084;8.646;2022-07-29T05:46:03;3.95;;;1.70;;
54845;SDS011;53889;50.084;8.646;2022-07-29T05:48:30;5.28;;;1.83;;
54845;SDS011;53889;50.084;8.646;2022-07-29T05:50:57;4.40;;;1.60;;
54845;SDS011;53889;50.084;8.646;2022-07-29T05:53:24;3.83;;;1.77;;
54845;SDS011;53889;50.084;8.646;2022-07-29T05:55:51;4.03;;;1.60;;
54845;SDS011;53889;50.084;8.646;2022-07-29T05:58:19;5.03;;;1.95;;
54845;SDS011;53889;50.084;8.646;2022-07-29T06:00:46;7.95;;;2.92;;
54845;SDS011;53889;50.084;8.646;2022-07-29T06:03:13;9.98;;;4.72;;
54845;SDS011;53889;50.084;8.646;2022-07-29T06:05:40;6.30;;;3.30;;
54845;SDS011;53889;50.084;8.646;2022-07-29T06:08:07;6.28;;;2.90;;
54845;SDS011;53889;50.084;8.646;2022-07-29T06:10:35;9.50;;;4.40;;
54845;SDS011;53889;50.084;8.646;2022-07-29T06:13:02;6.97;;;3.53;;
54845;SDS011;53889;50.084;8.646;2022-07-29T06:15:30;6.20;;;2.70;;
54845;SDS011;53889;50.084;8.646;2022-07-29T06:17:57;6.32;;;2.63;;
54845;SDS011;53889;50.084;8.646;2022-07-29T06:20:23;6.45;;;2.30;;
54845;SDS011;53889;50.084;8.646;2022-07-29T06:22:51;9.80;;;4.32;;
54845;SDS011;53889;50.084;8.646;2022-07-29T06:25:18;6.15;;;3.22;;
54845;SDS011;53889;50.084;8.646;2022-07-29T06:27:45;8.63;;;3.58;;
54845;SDS011;53889;50.084;8.646;2022-07-29T06:30:12;7.38;;;3.80;;
54845;SDS011;53889;50.084;8.646;2022-07-29T06:32:40;7.13;;;3.15;;
54845;SDS011;53889;50.084;8.646;2022-07-29T06:35:08;3.67;;;1.73;;
54845;SDS011;53889;50.084;8.646;2022-07-29T06:37:36;3.90;;;1.50;;
54845;SDS011;53889;50.084;8.646;2022-07-29T06:40:04;5.57;;;1.80;;
54845;SDS011;53889;50.084;8.646;2022-07-29T06:42:48;4.50;;;1.63;;
54845;SDS011;53889;50.084;8.646;2022-07-29T06:45:15;3.50;;;1.40;;
54845;SDS011;53889;50.084;8.646;2022-07-29T06:47:44;2.65;;;1.30;;
54845;SDS011;53889;50.084;8.646;2022-07-29T06:50:11;5.63;;;1.77;;
54845;SDS011;53889;50.084;8.646;2022-07-29T06:52:39;4.22;;;1.40;;
54845;SDS011;53889;50.084;8.646;2022-07-29T06:55:07;3.90;;;1.70;;
54845;SDS011;53889;50.084;8.646;2022-07-29T06:57:34;4.53;;;1.58;;
54845;SDS011;53889;50.084;8.646;2022-07-29T07:00:01;3.78;;;1.45;;
54845;SDS011;53889;50.084;8.646;2022-07-29T07:02:29;4.25;;;1.60;;
54845;SDS011;53889;50.084;8.646;2022-07-29T07:04:58;4.13;;;1.52;;
54845;SDS011;53889;50.084;8.646;2022-07-29T07:07:25;4.65;;;1.40;;
54845;SDS011;53889;50.084;8.646;2022-07-29T07:09:52;6.47;;;1.52;;
54845;SDS011;53889;50.084;8.646;2022-07-29T07:12:21;4.65;;;1.60;;
54845;SDS011;53889;50.084;8.646;2022-07-29T07:14:49;4.50;;;1.70;;
54845;SDS011;53889;50.084;8.646;2022-07-29T07:17:16;4.75;;;1.65;;
54845;SDS011;53889;50.084;8.646;2022-07-29T07:19:43;3.55;;;1.50;;
54845;SDS011;53889;50.084;8.646;2022-07-29T07:22:12;2.88;;;1.42;;
54845;SDS011;53889;50.084;8.646;2022-07-29T07:24:39;4.43;;;1.50;;
54845;SDS011;53889;50.084;8.646;2022-07-29T07:27:06;6.60;;;1.70;;
54845;SDS011;53889;50.084;8.646;2022-07-29T07:29:33;4.40;;;1.50;;
54845;SDS011;53889;50.084;8.646;2022-07-29T07:32:00;3.70;;;1.52;;
54845;SDS011;53889;50.084;8.646;2022-07-29T07:34:27;4.85;;;1.60;;
54845;SDS011;53889;50.084;8.646;2022-07-29T07:36:55;4.95;;;1.75;;
54845;SDS011;53889;50.084;8.646;2022-07-29T07:39:24;3.42;;;1.33;;
54845;SDS011;53889;50.084;8.646;2022-07-29T07:41:51;5.00;;;1.65;;
54845;SDS011;53889;50.084;8.646;2022-07-29T07:44:18;4.10;;;1.42;;
54845;SDS011;53889;50.084;8.646;2022-07-29T07:46:45;3.45;;;1.52;;
54845;SDS011;53889;50.084;8.646;2022-07-29T07:49:12;5.88;;;1.60;;
54845;SDS011;53889;50.084;8.646;2022-07-29T07:51:39;6.80;;;1.55;;
54845;SDS011;53889;50.084;8.646;2022-07-29T07:54:06;5.28;;;1.67;;
54845;SDS011;53889;50.084;8.646;2022-07-29T07:56:35;14.35;;;5.47;;
54845;SDS011;53889;50.084;8.646;2022-07-29T07:59:03;3.85;;;1.60;;
54845;SDS011;53889;50.084;8.646;2022-07-29T08:01:29;5.43;;;1.73;;
54845;SDS011;53889;50.084;8.646;2022-07-29T08:03:56;2.92;;;1.30;;
54845;SDS011;53889;50.084;8.646;2022-07-29T08:06:23;4.07;;;1.50;;
54845;SDS011;53889;50.084;8.646;2022-07-29T08:08:50;4.10;;;1.63;;
54845;SDS011;53889;50.084;8.646;2022-07-29T08:11:18;4.40;;;1.70;;
54845;SDS011;53889;50.084;8.646;2022-07-29T08:13:48;3.95;;;1.58;;
54845;SDS011;53889;50.084;8.646;2022-07-29T08:16:17;6.03;;;1.67;;
54845;SDS011;53889;50.084;8.646;2022-07-29T08:18:58;7.15;;;1.75;;
54845;SDS011;53889;50.084;8.646;2022-07-29T08:21:27;4.82;;;1.73;;
54845;SDS011;53889;50.084;8.646;2022-07-29T08:23:54;4.93;;;1.88;;
54845;SDS011;53889;50.084;8.646;2022-07-29T08:26:44;3.22;;;1.50;;
54845;SDS011;53889;50.084;8.646;2022-07-29T08:29:12;3.47;;;1.70;;
54845;SDS011;53889;50.084;8.646;2022-07-29T08:31:40;4.25;;;1.52;;
54845;SDS011;53889;50.084;8.646;2022-07-29T08:34:07;4.85;;;1.80;;
54845;SDS011;53889;50.084;8.646;2022-07-29T08:36:34;4.72;;;1.85;;
54845;SDS011;53889;50.084;8.646;2022-07-29T08:39:02;3.90;;;1.40;;
54845;SDS011;53889;50.084;8.646;2022-07-29T08:41:29;6.28;;;1.80;;
54845;SDS011;53889;50.084;8.646;2022-07-29T08:43:57;5.25;;;1.67;;
54845;SDS011;53889;50.084;8.646;2022-07-29T08:46:26;3.95;;;1.88;;
54845;SDS011;53889;50.084;8.646;2022-07-29T08:48:52;3.13;;;1.50;;
54845;SDS011;53889;50.084;8.646;2022-07-29T08:51:20;5.28;;;1.60;;
54845;SDS011;53889;50.084;8.646;2022-07-29T08:53:48;3.55;;;1.60;;
54845;SDS011;53889;50.084;8.646;2022-07-29T08:56:16;5.50;;;1.65;;
54845;SDS011;53889;50.084;8.646;2022-07-29T08:58:44;4.28;;;1.80;;
54845;SDS011;53889;50.084;8.646;2022-07-29T09:01:11;3.97;;;1.70;;
54845;SDS011;53889;50.084;8.646;2022-07-29T09:03:44;4.30;;;1.70;;
54845;SDS011;53889;50.084;8.646;2022-07-29T09:06:12;5.95;;;1.75;;
54845;SDS011;53889;50.084;8.646;2022-07-29T09:08:40;3.47;;;1.65;;
54845;SDS011;53889;50.084;8.646;2022-07-29T09:11:07;3.58;;;1.45;;
54845;SDS011;53889;50.084;8.646;2022-07-29T09:13:36;5.15;;;2.00;;
54845;SDS011;53889;50.084;8.646;2022-07-29T09:16:05;4.28;;;1.95;;
54845;SDS011;53889;50.084;8.646;2022-07-29T09:18:33;6.18;;;1.90;;
54845;SDS011;53889;50.084;8.646;2022-07-29T09:21:03;5.68;;;1.85;;
54845;SDS011;53889;50.084;8.646;2022-07-29T09:23:59;2.80;;;1.60;;
54845;SDS011;53889;50.084;8.646;2022-07-29T09:26:27;4.47;;;1.52;;
54845;SDS011;53889;50.084;8.646;2022-07-29T09:28:55;3.47;;;1.70;;
54845;SDS011;53889;50.084;8.646;2022-07-29T09:34:13;5.43;;;1.92;;
54845;SDS011;53889;50.084;8.646;2022-07-29T09:36:43;4.45;;;1.60;;
54845;SDS011;53889;50.084;8.646;2022-07-29T09:39:12;3.70;;;1.48;;
54845;SDS011;53889;50.084;8.646;2022-07-29T09:41:46;4.20;;;1.80;;
54845;SDS011;53889;50.084;8.646;2022-07-29T09:44:14;6.28;;;1.52;;
54845;SDS011;53889;50.084;8.646;2022-07-29T09:46:53;6.20;;;1.80;;
54845;SDS011;53889;50.084;8.646;2022-07-29T09:49:22;3.38;;;1.60;;
54845;SDS011;53889;50.084;8.646;2022-07-29T09:52:00;4.35;;;1.98;;
54845;SDS011;53889;50.084;8.646;2022-07-29T09:54:29;4.75;;;1.63;;
54845;SDS011;53889;50.084;8.646;2022-07-29T09:57:01;4.60;;;1.60;;
54845;SDS011;53889;50.084;8.646;2022-07-29T09:59:29;5.15;;;1.55;;
54845;SDS011;53889;50.084;8.646;2022-07-29T10:01:57;4.72;;;1.65;;
54845;SDS011;53889;50.084;8.646;2022-07-29T10:04:26;4.20;;;1.80;;
54845;SDS011;53889;50.084;8.646;2022-07-29T10:07:05;3.63;;;1.60;;
54845;SDS011;53889;50.084;8.646;2022-07-29T10:09:34;4.50;;;1.73;;
54845;SDS011;53889;50.084;8.646;2022-07-29T10:12:05;5.15;;;1.70;;
54845;SDS011;53889;50.084;8.646;2022-07-29T10:14:34;3.63;;;1.73;;
54845;SDS011;53889;50.084;8.646;2022-07-29T10:17:02;3.42;;;1.70;;
54845;SDS011;53889;50.084;8.646;2022-07-29T10:19:31;3.13;;;1.73;;
54845;SDS011;53889;50.084;8.646;2022-07-29T10:22:07;3.42;;;1.52;;
54845;SDS011;53889;50.084;8.646;2022-07-29T10:24:36;2.80;;;1.58;;
54845;SDS011;53889;50.084;8.646;2022-07-29T10:27:04;3.40;;;1.40;;
54845;SDS011;53889;50.084;8.646;2022-07-29T10:29:33;3.60;;;1.30;;
54845;SDS011;53889;50.084;8.646;2022-07-29T10:32:07;4.03;;;1.60;;
54845;SDS011;53889;50.084;8.646;2022-07-29T10:35:01;2.88;;;1.60;;
54845;SDS011;53889;50.084;8.646;2022-07-29T10:37:45;2.78;;;1.50;;
54845;SDS011;53889;50.084;8.646;2022-07-29T10:40:48;3.58;;;1.40;;
54845;SDS011;53889;50.084;8.646;2022-07-29T10:43:40;3.50;;;1.70;;
54845;SDS011;53889;50.084;8.646;2022-07-29T10:46:11;4.10;;;1.73;;
54845;SDS011;53889;50.084;8.646;2022-07-29T10:51:52;4.78;;;1.60;;
54845;SDS011;53889;50.084;8.646;2022-07-29T10:57:18;3.92;;;1.83;;
54845;SDS011;53889;50.084;8.646;2022-07-29T10:59:46;7.68;;;1.77;;
54845;SDS011;53889;50.084;8.646;2022-07-29T11:05:08;3.72;;;1.73;;
54845;SDS011;53889;50.084;8.646;2022-07-29T11:07:37;4.95;;;1.60;;
54845;SDS011;53889;50.084;8.646;2022-07-29T11:10:21;4.20;;;1.60;;
54845;SDS011;53889;50.084;8.646;2022-07-29T11:12:50;3.55;;;1.55;;
54845;SDS011;53889;50.084;8.646;2022-07-29T11:15:18;3.78;;;1.38;;
54845;SDS011;53889;50.084;8.646;2022-07-29T11:18:05;3.17;;;1.60;;
54845;SDS011;53889;50.084;8.646;2022-07-29T11:20:34;4.30;;;1.50;;
54845;SDS011;53889;50.084;8.646;2022-07-29T11:23:17;4.53;;;1.65;;
54845;SDS011;53889;50.084;8.646;2022-07-29T11:29:02;3.33;;;1.30;;
54845;SDS011;53889;50.084;8.646;2022-07-29T11:31:34;4.30;;;1.60;;
54845;SDS011;53889;50.084;8.646;2022-07-29T11:34:15;4.13;;;1.60;;
54845;SDS011;53889;50.084;8.646;2022-07-29T11:40:10;4.40;;;1.70;;
54845;SDS011;53889;50.084;8.646;2022-07-29T11:42:41;3.30;;;1.50;;
54845;SDS011;53889;50.084;8.646;2022-07-29T11:45:10;3.38;;;1.63;;
54845;SDS011;53889;50.084;8.646;2022-07-29T11:47:40;3.20;;;1.70;;
54845;SDS011;53889;50.084;8.646;2022-07-29T11:50:13;4.50;;;1.77;;
54845;SDS011;53889;50.084;8.646;2022-07-29T11:52:42;2.47;;;1.45;;
54845;SDS011;53889;50.084;8.646;2022-07-29T11:55:11;5.50;;;1.63;;
54845;SDS011;53889;50.084;8.646;2022-07-29T11:57:46;5.15;;;1.80;;
54845;SDS011;53889;50.084;8.646;2022-07-29T12:00:22;4.70;;;1.70;;
54845;SDS011;53889;50.084;8.646;2022-07-29T12:02:51;4.93;;;1.50;;
54845;SDS011;53889;50.084;8.646;2022-07-29T12:05:18;4.65;;;1.90;;
54845;SDS011;53889;50.084;8.646;2022-07-29T12:07:45;3.63;;;1.50;;
54845;SDS011;53889;50.084;8.646;2022-07-29T12:10:13;3.10;;;1.50;;
54845;SDS011;53889;50.084;8.646;2022-07-29T12:12:40;2.90;;;1.60;;
54845;SDS011;53889;50.084;8.646;2022-07-29T12:15:10;3.58;;;1.75;;
54845;SDS011;53889;50.084;8.646;2022-07-29T12:17:44;4.70;;;1.90;;
54845;SDS011;53889;50.084;8.646;2022-07-29T12:20:10;3.65;;;1.70;;
54845;SDS011;53889;50.084;8.646;2022-07-29T12:22:39;3.30;;;1.63;;
54845;SDS011;53889;50.084;8.646;2022-07-29T12:25:10;3.83;;;1.65;;
54845;SDS011;53889;50.084;8.646;2022-07-29T12:27:39;3.33;;;1.58;;
54845;SDS011;53889;50.084;8.646;2022-07-29T12:30:08;4.75;;;1.70;;
54845;SDS011;53889;50.084;8.646;2022-07-29T12:32:38;5.40;;;1.55;;
54845;SDS011;53889;50.084;8.646;2022-07-29T12:35:07;2.75;;;1.48;;
54845;SDS011;53889;50.084;8.646;2022-07-29T12:37:37;3.90;;;1.50;;
54845;SDS011;53889;50.084;8.646;2022-07-29T12:40:05;3.10;;;1.48;;
54845;SDS011;53889;50.084;8.646;2022-07-29T12:42:34;4.53;;;1.60;;
54845;SDS011;53889;50.084;8.646;2022-07-29T12:45:01;4.88;;;1.70;;
54845;SDS011;53889;50.084;8.646;2022-07-29T12:47:28;3.05;;;1.70;;
54845;SDS011;53889;50.084;8.646;2022-07-29T12:50:08;3.08;;;1.60;;
54845;SDS011;53889;50.084;8.646;2022-07-29T12:52:36;3.55;;;1.65;;
54845;SDS011;53889;50.084;8.646;2022-07-29T12:55:03;2.75;;;1.83;;
54845;SDS011;53889;50.084;8.646;2022-07-29T12:57:31;5.97;;;2.30;;
54845;SDS011;53889;50.084;8.646;2022-07-29T13:00:09;6.45;;;2.30;;
54845;SDS011;53889;50.084;8.646;2022-07-29T13:02:38;5.70;;;1.90;;
54845;SDS011;53889;50.084;8.646;2022-07-29T13:05:06;5.05;;;1.80;;
54845;SDS011;53889;50.084;8.646;2022-07-29T13:07:35;4.47;;;2.08;;
54845;SDS011;53889;50.084;8.646;2022-07-29T13:10:10;3.38;;;1.90;;
54845;SDS011;53889;50.084;8.646;2022-07-29T13:12:39;3.50;;;1.77;;
54845;SDS011;53889;50.084;8.646;2022-07-29T13:15:26;4.70;;;2.17;;
54845;SDS011;53889;50.084;8.646;2022-07-29T13:17:52;3.28;;;1.77;;
54845;SDS011;53889;50.084;8.646;2022-07-29T13:20:23;4.45;;;1.90;;
54845;SDS011;53889;50.084;8.646;2022-07-29T13:22:52;4.68;;;2.10;;
54845;SDS011;53889;50.084;8.646;2022-07-29T13:25:23;5.00;;;2.00;;
54845;SDS011;53889;50.084;8.646;2022-07-29T13:27:50;4.80;;;2.10;;
54845;SDS011;53889;50.084;8.646;2022-07-29T13:30:19;5.82;;;2.40;;
54845;SDS011;53889;50.084;8.646;2022-07-29T13:32:47;4.28;;;2.00;;
54845;SDS011;53889;50.084;8.646;2022-07-29T13:35:14;4.88;;;2.30;;
54845;SDS011;53889;50.084;8.646;2022-07-29T13:37:42;4.45;;;1.92;;
54845;SDS011;53889;50.084;8.646;2022-07-29T13:40:09;5.13;;;2.08;;
54845;SDS011;53889;50.084;8.646;2022-07-29T13:42:37;4.63;;;2.00;;
54845;SDS011;53889;50.084;8.646;2022-07-29T13:45:05;4.10;;;2.10;;
54845;SDS011;53889;50.084;8.646;2022-07-29T13:47:32;3.88;;;2.03;;
54845;SDS011;53889;50.084;8.646;2022-07-29T13:49:59;3.75;;;2.00;;
54845;SDS011;53889;50.084;8.646;2022-07-29T13:52:26;4.57;;;2.03;;
54845;SDS011;53889;50.084;8.646;2022-07-29T13:54:55;4.63;;;2.20;;
54845;SDS011;53889;50.084;8.646;2022-07-29T13:57:22;3.83;;;2.10;;
54845;SDS011;53889;50.084;8.646;2022-07-29T13:59:48;3.00;;;1.90;;
54845;SDS011;53889;50.084;8.646;2022-07-29T14:02:16;2.53;;;1.90;;
54845;SDS011;53889;50.084;8.646;2022-07-29T14:04:43;3.88;;;1.90;;
54845;SDS011;53889;50.084;8.646;2022-07-29T14:07:09;6.93;;;2.20;;
54845;SDS011;53889;50.084;8.646;2022-07-29T14:09:36;7.32;;;2.22;;
54845;SDS011;53889;50.084;8.646;2022-07-29T14:12:04;4.95;;;2.00;;
54845;SDS011;53889;50.084;8.646;2022-07-29T14:14:31;5.00;;;2.20;;
54845;SDS011;53889;50.084;8.646;2022-07-29T14:16:58;3.72;;;2.00;;
54845;SDS011;53889;50.084;8.646;2022-07-29T14:19:25;5.00;;;2.17;;
54845;SDS011;53889;50.084;8.646;2022-07-29T14:21:52;3.53;;;2.03;;
54845;SDS011;53889;50.084;8.646;2022-07-29T14:24:19;5.65;;;2.10;;
54845;SDS011;53889;50.084;8.646;2022-07-29T14:26:46;5.47;;;2.05;;
54845;SDS011;53889;50.084;8.646;2022-07-29T14:29:14;5.07;;;2.60;;
54845;SDS011;53889;50.084;8.646;2022-07-29T14:31:40;5.38;;;2.30;;
54845;SDS011;53889;50.084;8.646;2022-07-29T14:34:08;4.57;;;2.33;;
54845;SDS011;53889;50.084;8.646;2022-07-29T14:36:34;5.13;;;2.10;;
54845;SDS011;53889;50.084;8.646;2022-07-29T14:39:01;3.47;;;2.03;;
54845;SDS011;53889;50.084;8.646;2022-07-29T14:41:29;7.63;;;2.10;;
54845;SDS011;53889;50.084;8.646;2022-07-29T14:43:55;6.22;;;2.13;;
54845;SDS011;53889;50.084;8.646;2022-07-29T14:46:24;5.85;;;2.03;;
54845;SDS011;53889;50.084;8.646;2022-07-29T14:48:50;5.53;;;1.90;;
54845;SDS011;53889;50.084;8.646;2022-07-29T14:51:17;7.13;;;2.05;;
54845;SDS011;53889;50.084;8.646;2022-07-29T14:53:44;3.75;;;1.50;;
54845;SDS011;53889;50.084;8.646;2022-07-29T14:56:11;4.50;;;1.77;;
54845;SDS011;53889;50.084;8.646;2022-07-29T14:58:37;3.15;;;1.80;;
54845;SDS011;53889;50.084;8.646;2022-07-29T15:01:04;3.70;;;1.85;;
54845;SDS011;53889;50.084;8.646;2022-07-29T15:03:32;3.38;;;1.70;;
54845;SDS011;53889;50.084;8.646;2022-07-29T15:05:59;4.88;;;2.00;;
54845;SDS011;53889;50.084;8.646;2022-07-29T15:08:26;5.15;;;2.40;;
54845;SDS011;53889;50.084;8.646;2022-07-29T15:10:54;4.05;;;1.88;;
54845;SDS011;53889;50.084;8.646;2022-07-29T15:13:22;3.33;;;1.90;;
54845;SDS011;53889;50.084;8.646;2022-07-29T15:15:49;4.18;;;2.20;;
54845;SDS011;53889;50.084;8.646;2022-07-29T15:18:16;2.92;;;1.90;;
54845;SDS011;53889;50.084;8.646;2022-07-29T15:20:44;3.67;;;1.92;;
54845;SDS011;53889;50.084;8.646;2022-07-29T15:23:11;2.75;;;1.65;;